This is the latest recevied weather packets stored in our database for station/object KE6JJJ-1. If no packets are shown the sender has not sent any weather packets the latest 10 day(s).
| Time | Temp. | Humidity | Pressure | Rain* | Wind** | Luminosity | Snow |
|---|---|---|---|---|---|---|---|
| 1788336303 | 16.67° C | 84% | 1016.3 hPa | 0 mm | - | 0 W/m² | - |
| 1788334503 | 16.67° C | 85% | 1016.1 hPa | 0 mm | - | 0 W/m² | - |
| 1788332703 | 16.67° C | 85% | 1016.2 hPa | 0 mm | - | 0 W/m² | - |
| 1788330903 | 16.67° C | 85% | 1016.3 hPa | 0 mm | - | 0 W/m² | - |
| 1788329103 | 16.67° C | 84% | 1016.3 hPa | 0 mm | - | 0 W/m² | - |
| 1788327303 | 16.67° C | 84% | 1016.4 hPa | 0 mm | - | 0 W/m² | - |
| 1788325503 | 17.22° C | 83% | 1016.5 hPa | 0 mm | - | 0 W/m² | - |
| 1788323703 | 17.22° C | 83% | 1016.5 hPa | 0 mm | - | 0 W/m² | - |
| 1788321903 | 17.78° C | 83% | 1016.3 hPa | 0 mm | - | 0 W/m² | - |
| 1788320103 | 17.78° C | 83% | 1016.1 hPa | 0 mm | - | 0 W/m² | - |
| 1788318303 | 17.78° C | 81% | 1016.1 hPa | 0 mm | - | 0 W/m² | - |
| 1788316503 | 18.33° C | 80% | 1015.8 hPa | 0 mm | - | 3 W/m² | - |
| 1788314703 | 18.89° C | 77% | 1015.9 hPa | 0 mm | - | 46 W/m² | - |
| 1788312904 | 19.44° C | 72% | 1015.7 hPa | 0 mm | - | 33 W/m² | - |
| 1788311103 | 20.56° C | 72% | 1015.8 hPa | 0 mm | - | 234 W/m² | - |
| 1788309303 | 20.56° C | 71% | 1015.6 hPa | 0 mm | - | 341 W/m² | - |
| 1788307503 | 20.56° C | 69% | 1015.6 hPa | 0 mm | - | 438 W/m² | - |
| 1788305703 | 20.56° C | 71% | 1015.6 hPa | 0 mm | - | 111 W/m² | - |
| 1788303903 | 21.11° C | 69% | 1016 hPa | 0 mm | - | 624 W/m² | - |
| 1788302104 | 21.11° C | 70% | 1016.2 hPa | 0 mm | - | 603 W/m² | - |
| 1788300303 | 21.67° C | 68% | 1016.3 hPa | 0 mm | - | 877 W/m² | - |
| 1788298503 | 21.11° C | 66% | 1016.2 hPa | 0 mm | - | 840 W/m² | - |
| 1788296703 | 21.67° C | 67% | 1016.1 hPa | 0 mm | - | 918 W/m² | - |
| 1788294903 | 21.67° C | 67% | 1016.2 hPa | 0 mm | - | 993 W/m² | - |
| 1788293103 | 21.11° C | 66% | 1016.4 hPa | 0 mm | - | 469 W/m² | - |
* Rain latest hour (hover to see other rain measurements)
** Current wind speed in m/s (hover to see current wind gust speed)